createdAt,value
2018-08-30T00:00:40.975Z,38.20
2018-08-30T00:03:09.485Z,39.10
2018-08-30T00:05:38.009Z,40.00
2018-08-30T00:08:06.538Z,33.73
2018-08-30T00:10:35.121Z,28.83
2018-08-30T00:13:03.702Z,30.30
2018-08-30T00:15:32.226Z,30.95
2018-08-30T00:18:00.757Z,27.77
2018-08-30T00:20:29.303Z,27.95
2018-08-30T00:22:57.836Z,26.45
2018-08-30T00:25:26.371Z,25.43
2018-08-30T00:27:54.916Z,22.32
2018-08-30T00:30:23.544Z,23.47
2018-08-30T00:32:52.088Z,23.27
2018-08-30T00:35:20.650Z,21.42
2018-08-30T00:37:49.212Z,20.35
2018-08-30T00:40:17.765Z,17.73
2018-08-30T00:42:46.306Z,16.87
2018-08-30T00:45:14.818Z,15.68
2018-08-30T00:47:48.239Z,14.90
2018-08-30T00:50:17.081Z,14.53
2018-08-30T00:52:45.625Z,14.83
2018-08-30T00:55:14.991Z,13.93
2018-08-30T00:57:43.938Z,13.65
2018-08-30T01:00:12.493Z,10.98
2018-08-30T01:02:41.037Z,11.48
2018-08-30T01:05:09.590Z,12.63
2018-08-30T01:07:38.201Z,12.68
2018-08-30T01:10:06.808Z,12.47
2018-08-30T01:12:39.596Z,12.68
2018-08-30T01:15:08.102Z,13.18
2018-08-30T01:17:36.631Z,13.28
2018-08-30T01:20:05.180Z,14.13
2018-08-30T01:22:33.677Z,14.30
2018-08-30T01:25:02.260Z,15.30
2018-08-30T01:27:30.935Z,15.15
2018-08-30T01:29:59.457Z,16.70
2018-08-30T01:32:28.063Z,17.73
2018-08-30T01:34:56.628Z,18.70
2018-08-30T01:37:25.171Z,18.42
2018-08-30T01:39:53.707Z,19.30
2018-08-30T01:42:22.344Z,19.37
2018-08-30T01:44:50.857Z,19.50
2018-08-30T01:47:19.389Z,20.35
2018-08-30T01:49:47.990Z,19.30
2018-08-30T01:52:16.526Z,20.40
2018-08-30T01:54:45.060Z,21.35
2018-08-30T01:57:13.570Z,20.45
2018-08-30T01:59:42.101Z,21.75
2018-08-30T02:02:10.715Z,21.25
2018-08-30T02:04:39.318Z,21.52
2018-08-30T02:07:07.863Z,23.83
2018-08-30T02:09:36.344Z,22.52
2018-08-30T02:12:04.926Z,22.87
2018-08-30T02:14:33.506Z,22.32
2018-08-30T02:17:02.057Z,22.80
2018-08-30T02:19:30.629Z,24.37
2018-08-30T02:21:59.282Z,24.10
2018-08-30T02:24:27.818Z,24.37
2018-08-30T02:26:56.362Z,24.50
2018-08-30T02:29:24.912Z,24.75
2018-08-30T02:31:53.422Z,26.17
2018-08-30T02:34:21.942Z,26.48
2018-08-30T02:36:50.465Z,25.00
2018-08-30T02:39:19.048Z,25.77
2018-08-30T02:41:47.602Z,25.37
2018-08-30T02:44:16.155Z,24.57
2018-08-30T02:46:44.700Z,26.07
2018-08-30T02:49:13.268Z,25.65
2018-08-30T02:51:41.760Z,24.82
2018-08-30T02:54:10.339Z,25.77
2018-08-30T02:56:38.864Z,26.07
2018-08-30T02:59:07.405Z,26.25
2018-08-30T03:01:35.994Z,25.85
2018-08-30T03:04:04.607Z,25.65
2018-08-30T03:06:33.196Z,25.92
2018-08-30T03:09:01.755Z,25.50
2018-08-30T03:11:30.345Z,26.65
2018-08-30T03:13:58.894Z,26.60
2018-08-30T03:16:27.411Z,26.27
2018-08-30T03:18:55.993Z,26.50
2018-08-30T03:21:24.502Z,25.97
2018-08-30T03:23:53.073Z,25.85
2018-08-30T03:26:21.610Z,26.68
2018-08-30T03:28:50.095Z,25.02
2018-08-30T03:31:18.590Z,25.60
2018-08-30T03:33:47.107Z,24.72
2018-08-30T03:36:15.635Z,25.10
2018-08-30T03:38:44.151Z,26.23
2018-08-30T03:41:12.667Z,25.90
2018-08-30T03:43:41.237Z,25.30
2018-08-30T03:46:09.818Z,25.72
2018-08-30T03:48:38.368Z,25.30
2018-08-30T03:51:06.978Z,26.33
2018-08-30T03:53:35.566Z,26.27
2018-08-30T03:56:04.050Z,25.27
2018-08-30T03:58:32.574Z,24.18
2018-08-30T04:01:01.110Z,25.55
2018-08-30T04:03:29.664Z,25.92
2018-08-30T04:05:58.204Z,25.25
2018-08-30T04:08:26.804Z,24.75
2018-08-30T04:10:55.303Z,25.77
2018-08-30T04:13:23.857Z,25.15
2018-08-30T04:15:52.370Z,25.55
2018-08-30T04:18:20.884Z,24.80
2018-08-30T04:20:49.442Z,24.87
2018-08-30T04:23:18.010Z,25.05
2018-08-30T04:25:46.560Z,25.15
2018-08-30T04:28:15.129Z,24.55
2018-08-30T04:30:49.438Z,25.15
2018-08-30T04:33:17.991Z,25.95
2018-08-30T04:35:46.550Z,25.92
2018-08-30T04:38:15.102Z,25.62
2018-08-30T04:40:43.669Z,23.50
2018-08-30T04:43:12.206Z,25.40
2018-08-30T04:45:40.705Z,24.75
2018-08-30T04:48:09.254Z,26.82
2018-08-30T04:50:37.855Z,26.65
2018-08-30T04:53:12.825Z,25.68
2018-08-30T04:55:41.452Z,25.60
2018-08-30T04:58:10.352Z,27.00
2018-08-30T05:00:39.013Z,26.42
2018-08-30T05:03:09.491Z,26.40
2018-08-30T05:05:38.205Z,25.85
2018-08-30T05:08:06.836Z,26.05
2018-08-30T05:10:35.400Z,26.10
2018-08-30T05:13:03.929Z,25.65
2018-08-30T05:15:32.443Z,26.60
2018-08-30T05:18:01.179Z,24.30
2018-08-30T05:20:30.249Z,24.98
2018-08-30T05:22:58.791Z,24.40
2018-08-30T05:25:27.354Z,23.65
2018-08-30T05:27:55.856Z,23.87
2018-08-30T05:30:24.417Z,23.70
2018-08-30T05:32:53.278Z,23.30
2018-08-30T05:35:21.777Z,24.02
2018-08-30T05:37:50.399Z,23.83
2018-08-30T05:40:19.349Z,21.55
2018-08-30T05:42:47.938Z,20.68
2018-08-30T05:45:16.436Z,21.87
2018-08-30T05:47:44.953Z,20.72
2018-08-30T05:50:13.498Z,20.60
2018-08-30T05:52:42.050Z,21.10
2018-08-30T05:55:10.641Z,20.70
2018-08-30T05:57:39.146Z,20.90
2018-08-30T06:00:07.675Z,19.27
2018-08-30T06:02:36.276Z,19.77
2018-08-30T06:05:04.838Z,19.10
2018-08-30T06:07:33.535Z,19.92
2018-08-30T06:10:02.026Z,18.65
2018-08-30T06:12:30.585Z,19.02
2018-08-30T06:14:59.114Z,18.07
2018-08-30T06:17:27.639Z,17.92
2018-08-30T06:19:56.136Z,16.95
2018-08-30T06:22:24.663Z,17.07
2018-08-30T06:24:53.203Z,16.87
2018-08-30T06:27:21.729Z,16.60
2018-08-30T06:29:50.240Z,16.02
2018-08-30T06:32:18.843Z,15.43
2018-08-30T06:34:47.523Z,15.45
2018-08-30T06:37:16.026Z,15.65
2018-08-30T06:39:44.547Z,14.28
2018-08-30T06:42:13.048Z,13.10
2018-08-30T06:44:41.610Z,14.15
2018-08-30T06:47:10.163Z,13.75
2018-08-30T06:49:38.680Z,13.65
2018-08-30T06:52:07.233Z,11.80
2018-08-30T06:54:35.877Z,11.85
2018-08-30T06:57:04.994Z,12.30
2018-08-30T06:59:33.530Z,11.03
2018-08-30T07:02:02.084Z,12.00
2018-08-30T07:04:30.644Z,11.18
2018-08-30T07:07:01.924Z,11.03
2018-08-30T07:09:30.472Z,9.95
2018-08-30T07:11:58.990Z,10.72
2018-08-30T07:14:27.645Z,10.68
2018-08-30T07:16:56.129Z,10.08
2018-08-30T07:19:24.618Z,9.43
2018-08-30T07:21:53.219Z,10.65
2018-08-30T07:24:21.818Z,9.13
2018-08-30T07:26:50.285Z,9.53
2018-08-30T07:29:18.882Z,9.83
2018-08-30T07:31:47.424Z,10.00
2018-08-30T07:34:16.003Z,8.58
2018-08-30T07:36:44.515Z,9.43
2018-08-30T07:39:13.673Z,8.70
2018-08-30T07:41:42.185Z,9.00
2018-08-30T07:44:11.561Z,8.20
2018-08-30T07:46:40.062Z,8.43
2018-08-30T07:49:09.469Z,8.15
2018-08-30T07:51:38.046Z,8.85
2018-08-30T07:54:07.543Z,7.72
2018-08-30T07:56:36.077Z,8.05
2018-08-30T07:59:04.632Z,7.22
2018-08-30T08:01:33.312Z,7.53
2018-08-30T08:04:02.019Z,7.10
2018-08-30T08:06:30.592Z,7.40
2018-08-30T08:08:59.181Z,6.87
2018-08-30T08:11:31.608Z,6.67
2018-08-30T08:14:00.188Z,6.75
2018-08-30T08:16:28.726Z,6.55
2018-08-30T08:18:57.210Z,6.97
2018-08-30T08:21:25.718Z,6.47
2018-08-30T08:23:54.298Z,7.60
2018-08-30T08:26:23.066Z,6.97
2018-08-30T08:28:51.812Z,6.42
2018-08-30T08:31:20.407Z,7.08
2018-08-30T08:33:48.923Z,6.30
2018-08-30T08:36:23.942Z,6.08
2018-08-30T08:38:52.486Z,6.17
2018-08-30T08:41:20.991Z,5.20
2018-08-30T08:43:49.534Z,5.60
2018-08-30T08:46:18.079Z,6.22
2018-08-30T08:48:46.558Z,6.25
2018-08-30T08:51:15.174Z,6.28
2018-08-30T08:53:43.728Z,5.90
2018-08-30T08:56:12.169Z,6.03
2018-08-30T08:58:40.759Z,5.50
2018-08-30T09:01:09.179Z,5.53
2018-08-30T09:03:37.681Z,5.28
2018-08-30T09:06:06.337Z,5.40
2018-08-30T09:08:34.904Z,5.55
2018-08-30T09:11:03.413Z,5.00
2018-08-30T09:13:31.973Z,5.62
2018-08-30T09:16:00.496Z,5.03
2018-08-30T09:18:29.100Z,5.12
2018-08-30T09:20:57.577Z,5.25
2018-08-30T09:23:26.146Z,5.75
2018-08-30T09:25:54.678Z,5.80
2018-08-30T09:28:23.204Z,5.22
2018-08-30T09:30:51.847Z,5.40
2018-08-30T09:33:20.408Z,5.72
2018-08-30T09:35:48.920Z,5.62
2018-08-30T09:38:17.515Z,5.67
2018-08-30T09:40:46.015Z,5.10
2018-08-30T09:43:14.551Z,4.95
2018-08-30T09:45:50.614Z,5.00
2018-08-30T09:48:19.161Z,4.97
2018-08-30T09:50:47.649Z,5.17
2018-08-30T09:53:16.243Z,5.45
2018-08-30T09:55:44.850Z,5.35
2018-08-30T09:58:13.424Z,5.33
2018-08-30T10:00:47.341Z,5.47
2018-08-30T10:03:15.853Z,5.20
2018-08-30T10:05:44.370Z,4.92
2018-08-30T10:08:19.574Z,5.12
2018-08-30T10:10:48.140Z,5.17
2018-08-30T10:13:16.736Z,5.37
2018-08-30T10:15:45.290Z,4.75
2018-08-30T10:18:13.811Z,5.17
2018-08-30T10:20:42.328Z,4.87
2018-08-30T10:23:10.851Z,5.28
2018-08-30T10:25:39.429Z,5.33
2018-08-30T10:28:07.982Z,4.92
2018-08-30T10:30:36.513Z,4.70
2018-08-30T10:33:05.336Z,4.35
2018-08-30T10:35:33.843Z,5.30
2018-08-30T10:38:02.371Z,5.33
2018-08-30T10:40:30.928Z,5.15
2018-08-30T10:42:59.612Z,5.10
2018-08-30T10:45:28.174Z,4.37
2018-08-30T10:47:56.705Z,4.78
2018-08-30T10:50:25.219Z,5.00
2018-08-30T10:52:53.821Z,4.33
2018-08-30T10:55:22.300Z,4.78
2018-08-30T10:57:50.808Z,4.62
2018-08-30T11:00:19.395Z,4.60
2018-08-30T11:02:47.978Z,4.55
2018-08-30T11:05:16.520Z,4.62
2018-08-30T11:07:45.047Z,4.22
2018-08-30T11:10:13.628Z,4.83
2018-08-30T11:12:42.199Z,4.70
2018-08-30T11:15:10.524Z,4.53
2018-08-30T11:17:39.029Z,4.05
2018-08-30T11:20:07.571Z,3.92
2018-08-30T11:22:36.110Z,4.08
2018-08-30T11:25:04.657Z,4.30
2018-08-30T11:27:33.167Z,4.25
2018-08-30T11:30:01.701Z,4.15
2018-08-30T11:32:30.253Z,3.80
2018-08-30T11:34:58.790Z,3.95
2018-08-30T11:37:27.396Z,4.12
2018-08-30T11:39:56.009Z,3.87
2018-08-30T11:42:24.671Z,3.60
2018-08-30T11:44:53.161Z,4.35
2018-08-30T11:47:21.681Z,3.75
2018-08-30T11:49:50.242Z,3.90
2018-08-30T11:52:18.826Z,4.28
2018-08-30T11:54:47.306Z,3.83
2018-08-30T11:57:15.806Z,4.03
2018-08-30T11:59:44.355Z,3.80
2018-08-30T12:02:13.136Z,3.80
2018-08-30T12:04:41.654Z,3.50
2018-08-30T12:07:10.229Z,3.80
2018-08-30T12:09:38.778Z,3.58
2018-08-30T12:12:07.387Z,3.50
2018-08-30T12:14:35.957Z,4.05
2018-08-30T12:17:04.541Z,3.33
2018-08-30T12:19:33.073Z,3.35
2018-08-30T12:22:01.615Z,3.33
2018-08-30T12:24:30.142Z,3.08
2018-08-30T12:26:58.714Z,3.60
2018-08-30T12:29:27.271Z,4.08
2018-08-30T12:31:55.844Z,3.70
2018-08-30T12:34:30.757Z,3.60
2018-08-30T12:36:59.271Z,3.70
2018-08-30T12:39:27.808Z,3.30
2018-08-30T12:41:56.347Z,4.15
2018-08-30T12:44:24.869Z,3.55
2018-08-30T12:46:53.478Z,3.62
2018-08-30T12:49:22.020Z,3.50
2018-08-30T12:51:50.670Z,3.20
2018-08-30T12:54:19.158Z,4.10
2018-08-30T12:56:47.790Z,3.60
2018-08-30T12:59:17.234Z,3.70
2018-08-30T13:01:46.447Z,3.67
2018-08-30T13:04:15.100Z,3.05
2018-08-30T13:06:49.775Z,3.05
2018-08-30T13:09:18.376Z,4.40
2018-08-30T13:11:47.015Z,5.30
2018-08-30T13:14:15.555Z,5.20
2018-08-30T13:16:44.426Z,2.72
2018-08-30T13:19:13.113Z,2.50
2018-08-30T13:21:41.683Z,4.35
2018-08-30T13:24:10.484Z,2.95
2018-08-30T13:26:38.983Z,3.90
2018-08-30T13:29:07.502Z,2.77
2018-08-30T13:31:36.322Z,2.70
2018-08-30T13:34:04.835Z,2.98
2018-08-30T13:36:33.214Z,2.40
2018-08-30T13:39:01.990Z,3.12
2018-08-30T13:41:30.356Z,3.00
2018-08-30T13:43:59.740Z,2.80
2018-08-30T13:46:28.457Z,2.45
2018-08-30T13:48:57.021Z,3.00
2018-08-30T13:51:25.350Z,2.40
2018-08-30T13:53:53.861Z,2.70
2018-08-30T13:56:22.737Z,2.90
2018-08-30T13:58:51.327Z,2.87
2018-08-30T14:01:19.976Z,2.55
2018-08-30T14:03:48.207Z,2.70
2018-08-30T14:06:16.842Z,2.75
2018-08-30T14:08:45.517Z,3.00
2018-08-30T14:11:14.102Z,2.40
2018-08-30T14:13:42.648Z,2.87
2018-08-30T14:16:11.515Z,2.87
2018-08-30T14:18:40.088Z,2.25
2018-08-30T14:21:08.605Z,2.83
2018-08-30T14:23:37.153Z,2.50
2018-08-30T14:26:05.739Z,2.50
2018-08-30T14:28:34.320Z,2.37
2018-08-30T14:31:02.954Z,2.45
2018-08-30T14:33:31.505Z,2.42
2018-08-30T14:35:59.999Z,2.50
2018-08-30T14:38:28.741Z,2.20
2018-08-30T14:40:57.447Z,2.37
2018-08-30T14:43:26.327Z,2.50
2018-08-30T14:45:55.535Z,2.35
2018-08-30T14:48:24.235Z,2.40
2018-08-30T14:50:53.212Z,2.00
2018-08-30T14:53:21.902Z,2.30
2018-08-30T14:55:50.412Z,2.52
2018-08-30T14:58:19.086Z,2.45
2018-08-30T15:00:48.891Z,2.02
2018-08-30T15:03:17.389Z,2.20
2018-08-30T15:05:45.960Z,2.20
2018-08-30T15:08:14.523Z,2.17
2018-08-30T15:10:43.056Z,2.20
2018-08-30T15:13:11.597Z,2.12
2018-08-30T15:15:40.310Z,2.70
2018-08-30T15:18:08.736Z,2.37
2018-08-30T15:20:37.307Z,2.25
2018-08-30T15:23:06.225Z,2.12
2018-08-30T15:25:34.680Z,2.40
2018-08-30T15:28:03.253Z,2.42
2018-08-30T15:30:31.824Z,2.55
2018-08-30T15:33:00.367Z,2.30
2018-08-30T15:35:28.969Z,2.42
2018-08-30T15:37:57.501Z,2.05
2018-08-30T15:40:26.469Z,2.12
2018-08-30T15:42:55.113Z,1.80
2018-08-30T15:45:23.740Z,2.30
2018-08-30T15:47:55.256Z,2.10
2018-08-30T15:50:23.808Z,2.10
2018-08-30T15:52:52.327Z,2.30
2018-08-30T15:55:20.921Z,2.35
2018-08-30T15:57:49.572Z,2.30
2018-08-30T16:00:18.050Z,2.20
2018-08-30T16:02:47.207Z,2.17
2018-08-30T16:05:15.985Z,2.55
2018-08-30T16:07:44.550Z,2.27
2018-08-30T16:10:14.392Z,2.20
2018-08-30T16:12:43.260Z,2.22
2018-08-30T16:15:11.811Z,2.10
2018-08-30T16:17:40.358Z,2.10
2018-08-30T16:20:08.978Z,2.52
2018-08-30T16:23:47.480Z,2.10
2018-08-30T16:26:15.997Z,2.35
2018-08-30T16:28:44.537Z,1.82
2018-08-30T16:31:13.269Z,2.30
2018-08-30T16:33:41.736Z,2.05
2018-08-30T16:36:10.262Z,2.12
2018-08-30T16:38:38.807Z,2.17
2018-08-30T16:41:07.593Z,2.10
2018-08-30T16:43:36.284Z,2.37
2018-08-30T16:46:05.009Z,2.08
2018-08-30T16:48:33.620Z,2.50
2018-08-30T16:51:02.886Z,2.20
2018-08-30T16:53:31.605Z,2.15
2018-08-30T16:56:00.230Z,2.33
2018-08-30T16:58:28.879Z,2.27
2018-08-30T17:00:57.519Z,2.08
2018-08-30T17:03:26.220Z,2.17
2018-08-30T17:05:54.903Z,2.72
2018-08-30T17:08:23.617Z,2.30
2018-08-30T17:10:52.215Z,2.22
2018-08-30T17:13:20.830Z,2.55
2018-08-30T17:15:49.479Z,2.20
2018-08-30T17:18:18.147Z,2.08
2018-08-30T17:20:48.904Z,1.92
2018-08-30T17:23:17.570Z,2.10
2018-08-30T17:25:46.307Z,2.60
2018-08-30T17:28:14.850Z,2.20
2018-08-30T17:30:43.761Z,2.52
2018-08-30T17:33:15.484Z,2.08
2018-08-30T17:35:44.673Z,2.30
2018-08-30T17:38:14.404Z,2.40
2018-08-30T17:40:43.024Z,2.40
2018-08-30T17:43:11.633Z,2.55
2018-08-30T17:45:40.226Z,2.40
2018-08-30T17:48:08.866Z,2.45
2018-08-30T17:50:37.507Z,2.17
2018-08-30T17:53:06.060Z,2.22
2018-08-30T17:55:34.671Z,2.60
2018-08-30T18:00:56.463Z,2.10
2018-08-30T18:03:25.060Z,2.60
2018-08-30T18:05:53.606Z,2.80
2018-08-30T18:08:22.121Z,2.33
2018-08-30T18:10:50.741Z,2.02
2018-08-30T18:13:19.172Z,2.50
2018-08-30T18:15:47.675Z,2.40
2018-08-30T18:18:16.347Z,2.17
2018-08-30T18:20:44.802Z,2.27
2018-08-30T18:23:13.330Z,2.27
2018-08-30T18:25:41.876Z,2.50
2018-08-30T18:28:10.483Z,2.33
2018-08-30T18:30:39.043Z,2.40
2018-08-30T18:33:07.589Z,2.22
2018-08-30T18:35:36.154Z,2.33
2018-08-30T18:38:04.715Z,2.35
2018-08-30T18:40:34.266Z,1.90
2018-08-30T18:43:02.838Z,2.05
2018-08-30T18:45:31.475Z,2.22
2018-08-30T18:48:00.059Z,1.98
2018-08-30T18:50:29.694Z,2.00
2018-08-30T18:52:58.287Z,2.12
2018-08-30T18:55:26.862Z,1.80
2018-08-30T18:57:55.445Z,2.10
2018-08-30T19:00:24.048Z,2.55
2018-08-30T19:02:55.426Z,2.30
2018-08-30T19:05:25.075Z,1.90
2018-08-30T19:07:53.940Z,2.55
2018-08-30T19:10:23.150Z,2.50
2018-08-30T19:12:52.119Z,2.62
2018-08-30T19:16:28.684Z,2.10
2018-08-30T19:19:02.543Z,2.50
2018-08-30T19:21:31.426Z,2.30
2018-08-30T19:24:00.082Z,2.10
2018-08-30T19:26:28.728Z,2.37
2018-08-30T19:28:57.430Z,2.50
2018-08-30T19:31:26.334Z,2.50
2018-08-30T19:33:55.214Z,2.02
2018-08-30T19:36:31.492Z,2.12
2018-08-30T19:39:01.237Z,2.45
2018-08-30T19:41:29.980Z,1.87
2018-08-30T19:43:58.512Z,2.15
2018-08-30T19:46:30.116Z,2.30
2018-08-30T19:48:58.700Z,2.40
2018-08-30T19:51:27.340Z,3.42
2018-08-30T19:53:56.029Z,2.42
2018-08-30T19:56:24.694Z,2.83
2018-08-30T19:58:53.424Z,2.70
2018-08-30T20:01:22.040Z,2.40
2018-08-30T20:03:50.546Z,2.67
2018-08-30T20:06:19.166Z,2.72
2018-08-30T20:08:47.938Z,2.37
2018-08-30T20:11:16.633Z,2.70
2018-08-30T20:13:45.292Z,2.85
2018-08-30T20:16:13.947Z,3.27
2018-08-30T20:18:42.477Z,2.67
2018-08-30T20:21:11.066Z,2.50
2018-08-30T20:23:39.567Z,2.62
2018-08-30T20:26:08.143Z,2.95
2018-08-30T20:28:36.688Z,2.45
2018-08-30T20:31:05.217Z,3.00
2018-08-30T20:33:33.766Z,2.37
2018-08-30T20:36:02.252Z,2.72
2018-08-30T20:38:30.776Z,2.70
2018-08-30T20:40:59.375Z,2.22
2018-08-30T20:43:27.978Z,2.58
2018-08-30T20:45:56.595Z,2.60
2018-08-30T20:48:25.120Z,2.58
2018-08-30T20:50:53.771Z,2.40
2018-08-30T20:53:22.334Z,2.72
2018-08-30T20:55:50.947Z,2.98
2018-08-30T20:58:19.520Z,2.50
2018-08-30T21:00:48.284Z,2.77
2018-08-30T21:03:16.820Z,2.80
2018-08-30T21:05:45.527Z,2.85
2018-08-30T21:08:21.468Z,2.77
2018-08-30T21:10:50.085Z,2.80
2018-08-30T21:13:18.703Z,2.70
2018-08-30T21:15:47.323Z,2.55
2018-08-30T21:18:15.905Z,2.87
2018-08-30T21:20:44.434Z,2.83
2018-08-30T21:23:13.056Z,2.80
2018-08-30T21:25:41.604Z,3.15
2018-08-30T21:28:10.100Z,2.60
2018-08-30T21:30:38.639Z,3.00
2018-08-30T21:33:07.462Z,2.70
2018-08-30T21:35:36.060Z,2.90
2018-08-30T21:38:04.988Z,2.80
2018-08-30T21:40:33.519Z,2.60
2018-08-30T21:43:02.105Z,2.90
2018-08-30T21:45:30.597Z,2.37
2018-08-30T21:47:59.135Z,2.50
2018-08-30T21:50:27.678Z,3.20
2018-08-30T21:52:56.227Z,2.50
2018-08-30T21:55:25.078Z,2.58
2018-08-30T21:57:53.693Z,2.52
2018-08-30T22:00:22.257Z,2.65
2018-08-30T22:02:50.890Z,2.85
2018-08-30T22:05:19.366Z,2.98
2018-08-30T22:07:47.947Z,3.00
2018-08-30T22:10:16.474Z,2.87
2018-08-30T22:12:45.034Z,2.52
2018-08-30T22:15:13.506Z,2.98
2018-08-30T22:17:42.951Z,2.98
2018-08-30T22:20:11.454Z,2.58
2018-08-30T22:22:40.001Z,2.85
2018-08-30T22:25:08.554Z,3.00
2018-08-30T22:27:37.161Z,2.85
2018-08-30T22:30:08.635Z,3.27
2018-08-30T22:32:37.135Z,2.80
2018-08-30T22:35:05.776Z,2.83
2018-08-30T22:37:35.285Z,2.42
2018-08-30T22:40:03.875Z,2.50
2018-08-30T22:42:32.491Z,3.12
2018-08-30T22:45:01.351Z,3.27
2018-08-30T22:47:29.856Z,2.92
2018-08-30T22:49:58.398Z,2.62
2018-08-30T22:52:27.022Z,2.67
2018-08-30T22:54:55.685Z,2.67
2018-08-30T22:57:24.169Z,2.85
2018-08-30T22:59:52.682Z,2.80
2018-08-30T23:02:21.173Z,2.75
2018-08-30T23:04:49.716Z,2.85
2018-08-30T23:07:18.235Z,2.87
2018-08-30T23:09:46.751Z,2.80
2018-08-30T23:12:15.255Z,2.95
2018-08-30T23:14:44.310Z,3.33
2018-08-30T23:17:12.804Z,3.65
2018-08-30T23:19:41.403Z,3.40
2018-08-30T23:22:09.988Z,3.60
2018-08-30T23:24:38.502Z,3.17
2018-08-30T23:27:07.081Z,2.55
2018-08-30T23:29:35.637Z,2.98
2018-08-30T23:32:04.162Z,3.12
2018-08-30T23:34:32.638Z,3.30
2018-08-30T23:37:01.270Z,2.83
2018-08-30T23:39:29.782Z,3.30
2018-08-30T23:41:58.253Z,3.55
2018-08-30T23:44:26.735Z,2.85
2018-08-30T23:46:55.279Z,3.20
2018-08-30T23:49:23.792Z,3.30
2018-08-30T23:51:52.309Z,2.85
2018-08-30T23:54:20.811Z,3.42
2018-08-30T23:56:49.364Z,3.75
2018-08-30T23:59:29.023Z,3.65
